sensor_id;sensor_type;location;lat;lon;timestamp;pressure;altitude;pressure_sealevel;temperature;humidity
44140;BME280;29803;51.048;4.686;2022-10-23T00:00:27;101307.97;;;11.19;100.00
44140;BME280;29803;51.048;4.686;2022-10-23T00:02:58;101298.41;;;11.16;100.00
44140;BME280;29803;51.048;4.686;2022-10-23T00:05:29;101297.56;;;11.15;100.00
44140;BME280;29803;51.048;4.686;2022-10-23T00:07:59;101298.59;;;11.14;100.00
44140;BME280;29803;51.048;4.686;2022-10-23T00:10:30;101300.56;;;11.12;100.00
44140;BME280;29803;51.048;4.686;2022-10-23T00:13:00;101291.00;;;11.10;100.00
44140;BME280;29803;51.048;4.686;2022-10-23T00:15:34;101294.66;;;11.09;100.00
44140;BME280;29803;51.048;4.686;2022-10-23T00:18:04;101293.53;;;11.11;100.00
44140;BME280;29803;51.048;4.686;2022-10-23T00:20:35;101295.19;;;11.12;100.00
44140;BME280;29803;51.048;4.686;2022-10-23T00:23:05;101288.69;;;11.15;100.00
44140;BME280;29803;51.048;4.686;2022-10-23T00:25:36;101290.88;;;11.20;100.00
44140;BME280;29803;51.048;4.686;2022-10-23T00:28:08;101294.41;;;11.20;100.00
44140;BME280;29803;51.048;4.686;2022-10-23T00:30:38;101302.47;;;11.20;100.00
44140;BME280;29803;51.048;4.686;2022-10-23T00:33:09;101299.63;;;11.22;100.00
44140;BME280;29803;51.048;4.686;2022-10-23T00:35:40;101306.66;;;11.23;100.00
44140;BME280;29803;51.048;4.686;2022-10-23T00:38:11;101295.94;;;11.23;100.00
44140;BME280;29803;51.048;4.686;2022-10-23T00:40:41;101297.47;;;11.25;100.00
44140;BME280;29803;51.048;4.686;2022-10-23T00:43:23;101276.66;;;11.27;100.00
44140;BME280;29803;51.048;4.686;2022-10-23T00:45:54;101276.47;;;11.29;100.00
44140;BME280;29803;51.048;4.686;2022-10-23T00:48:26;101287.09;;;11.30;100.00
44140;BME280;29803;51.048;4.686;2022-10-23T00:50:57;101283.56;;;11.30;100.00
44140;BME280;29803;51.048;4.686;2022-10-23T00:53:27;101279.34;;;11.27;100.00
44140;BME280;29803;51.048;4.686;2022-10-23T00:55:58;101272.59;;;11.23;100.00
44140;BME280;29803;51.048;4.686;2022-10-23T00:58:29;101268.41;;;11.21;100.00
44140;BME280;29803;51.048;4.686;2022-10-23T01:00:59;101268.41;;;11.21;100.00
44140;BME280;29803;51.048;4.686;2022-10-23T01:03:30;101253.78;;;11.23;100.00
44140;BME280;29803;51.048;4.686;2022-10-23T01:09:11;101246.25;;;11.27;100.00
44140;BME280;29803;51.048;4.686;2022-10-23T01:12:32;101250.63;;;11.28;100.00
44140;BME280;29803;51.048;4.686;2022-10-23T01:15:28;101244.41;;;11.27;100.00
44140;BME280;29803;51.048;4.686;2022-10-23T01:18:23;101246.56;;;11.24;100.00
44140;BME280;29803;51.048;4.686;2022-10-23T01:21:48;101241.38;;;11.22;100.00
44140;BME280;29803;51.048;4.686;2022-10-23T01:24:16;101245.91;;;11.22;100.00
44140;BME280;29803;51.048;4.686;2022-10-23T01:30:08;101243.06;;;11.23;100.00
44140;BME280;29803;51.048;4.686;2022-10-23T01:33:04;101248.28;;;11.25;100.00
44140;BME280;29803;51.048;4.686;2022-10-23T01:35:44;101247.09;;;11.27;100.00
44140;BME280;29803;51.048;4.686;2022-10-23T01:38:22;101231.50;;;11.31;100.00
44140;BME280;29803;51.048;4.686;2022-10-23T01:43:29;101245.97;;;11.38;100.00
44140;BME280;29803;51.048;4.686;2022-10-23T01:46:07;101231.03;;;11.35;100.00
44140;BME280;29803;51.048;4.686;2022-10-23T01:48:47;101222.81;;;11.37;100.00
44140;BME280;29803;51.048;4.686;2022-10-23T01:51:23;101224.47;;;11.38;100.00
44140;BME280;29803;51.048;4.686;2022-10-23T01:53:57;101213.75;;;11.38;100.00
44140;BME280;29803;51.048;4.686;2022-10-23T01:56:32;101218.09;;;11.39;100.00
44140;BME280;29803;51.048;4.686;2022-10-23T01:59:07;101214.25;;;11.41;100.00
44140;BME280;29803;51.048;4.686;2022-10-23T02:01:42;101200.34;;;11.46;100.00
44140;BME280;29803;51.048;4.686;2022-10-23T02:04:20;101205.38;;;11.49;100.00
44140;BME280;29803;51.048;4.686;2022-10-23T02:06:53;101197.84;;;11.53;100.00
44140;BME280;29803;51.048;4.686;2022-10-23T02:09:24;101207.44;;;11.55;100.00
44140;BME280;29803;51.048;4.686;2022-10-23T02:12:29;101199.19;;;11.57;100.00
44140;BME280;29803;51.048;4.686;2022-10-23T02:17:46;101183.72;;;11.59;100.00
44140;BME280;29803;51.048;4.686;2022-10-23T02:20:25;101178.88;;;11.62;100.00
44140;BME280;29803;51.048;4.686;2022-10-23T02:23:24;101178.03;;;11.62;100.00
44140;BME280;29803;51.048;4.686;2022-10-23T02:26:03;101178.03;;;11.62;100.00
44140;BME280;29803;51.048;4.686;2022-10-23T02:28:46;101174.16;;;11.64;100.00
44140;BME280;29803;51.048;4.686;2022-10-23T02:31:21;101159.06;;;11.63;100.00
44140;BME280;29803;51.048;4.686;2022-10-23T02:33:52;101148.31;;;11.63;100.00
44140;BME280;29803;51.048;4.686;2022-10-23T02:36:22;101156.72;;;11.68;100.00
44140;BME280;29803;51.048;4.686;2022-10-23T02:38:53;101146.66;;;11.71;100.00
44140;BME280;29803;51.048;4.686;2022-10-23T02:41:43;101143.63;;;11.74;100.00
44140;BME280;29803;51.048;4.686;2022-10-23T02:44:28;101140.44;;;11.78;100.00
44140;BME280;29803;51.048;4.686;2022-10-23T02:52:45;101128.38;;;11.82;100.00
44140;BME280;29803;51.048;4.686;2022-10-23T02:58:06;101122.81;;;11.84;100.00
44140;BME280;29803;51.048;4.686;2022-10-23T03:00:42;101123.00;;;11.82;100.00
44140;BME280;29803;51.048;4.686;2022-10-23T03:03:52;101114.09;;;11.82;100.00
44140;BME280;29803;51.048;4.686;2022-10-23T03:06:23;101108.88;;;11.80;100.00
44140;BME280;29803;51.048;4.686;2022-10-23T03:08:58;101108.03;;;11.80;100.00
44140;BME280;29803;51.048;4.686;2022-10-23T03:11:29;101108.88;;;11.80;100.00
44140;BME280;29803;51.048;4.686;2022-10-23T03:14:00;101109.56;;;11.82;100.00
44140;BME280;29803;51.048;4.686;2022-10-23T03:16:31;101097.09;;;11.81;100.00
44140;BME280;29803;51.048;4.686;2022-10-23T03:19:01;101098.25;;;11.79;100.00
44140;BME280;29803;51.048;4.686;2022-10-23T03:21:32;101104.00;;;11.76;100.00
44140;BME280;29803;51.048;4.686;2022-10-23T03:24:02;101100.47;;;11.75;100.00
44140;BME280;29803;51.048;4.686;2022-10-23T03:26:33;101094.25;;;11.75;100.00
44140;BME280;29803;51.048;4.686;2022-10-23T03:29:04;101093.56;;;11.73;100.00
44140;BME280;29803;51.048;4.686;2022-10-23T03:31:34;101086.50;;;11.72;100.00
44140;BME280;29803;51.048;4.686;2022-10-23T03:34:04;101082.28;;;11.69;100.00
44140;BME280;29803;51.048;4.686;2022-10-23T03:36:40;101083.31;;;11.68;100.00
44140;BME280;29803;51.048;4.686;2022-10-23T03:39:11;101070.06;;;11.66;100.00
44140;BME280;29803;51.048;4.686;2022-10-23T03:41:41;101079.28;;;11.64;100.00
44140;BME280;29803;51.048;4.686;2022-10-23T03:44:12;101067.22;;;11.60;100.00
44140;BME280;29803;51.048;4.686;2022-10-23T03:46:43;101060.13;;;11.59;100.00
44140;BME280;29803;51.048;4.686;2022-10-23T03:49:13;101054.59;;;11.60;100.00
44140;BME280;29803;51.048;4.686;2022-10-23T03:51:44;101061.84;;;11.60;100.00
44140;BME280;29803;51.048;4.686;2022-10-23T03:54:22;101046.03;;;11.57;100.00
44140;BME280;29803;51.048;4.686;2022-10-23T03:56:54;101050.75;;;11.55;100.00
44140;BME280;29803;51.048;4.686;2022-10-23T03:59:25;101048.22;;;11.53;100.00
44140;BME280;29803;51.048;4.686;2022-10-23T04:01:55;101048.53;;;11.58;100.00
44140;BME280;29803;51.048;4.686;2022-10-23T04:04:26;101049.38;;;11.59;100.00
44140;BME280;29803;51.048;4.686;2022-10-23T04:06:56;101050.22;;;11.59;100.00
44140;BME280;29803;51.048;4.686;2022-10-23T04:09:27;101048.22;;;11.61;100.00
44140;BME280;29803;51.048;4.686;2022-10-23T04:11:57;101049.22;;;11.60;100.00
44140;BME280;29803;51.048;4.686;2022-10-23T04:14:28;101049.06;;;11.62;100.00
44140;BME280;29803;51.048;4.686;2022-10-23T04:16:58;101050.72;;;11.63;100.00
44140;BME280;29803;51.048;4.686;2022-10-23T04:19:29;101043.19;;;11.66;100.00
44140;BME280;29803;51.048;4.686;2022-10-23T04:21:59;101044.19;;;11.65;100.00
44140;BME280;29803;51.048;4.686;2022-10-23T04:24:29;101050.41;;;11.66;100.00
44140;BME280;29803;51.048;4.686;2022-10-23T04:27:00;101034.28;;;11.66;100.00
44140;BME280;29803;51.048;4.686;2022-10-23T04:29:30;101033.25;;;11.67;100.00
44140;BME280;29803;51.048;4.686;2022-10-23T04:32:01;101036.47;;;11.62;100.00
44140;BME280;29803;51.048;4.686;2022-10-23T04:34:32;101035.63;;;11.62;100.00
44140;BME280;29803;51.048;4.686;2022-10-23T04:37:02;101033.94;;;11.61;100.00
44140;BME280;29803;51.048;4.686;2022-10-23T04:39:33;101029.59;;;11.60;100.00
44140;BME280;29803;51.048;4.686;2022-10-23T04:42:03;101031.59;;;11.58;100.00
44140;BME280;29803;51.048;4.686;2022-10-23T04:44:34;101029.06;;;11.56;100.00
44140;BME280;29803;51.048;4.686;2022-10-23T04:47:04;101022.88;;;11.56;100.00
44140;BME280;29803;51.048;4.686;2022-10-23T04:49:34;101020.50;;;11.53;100.00
44140;BME280;29803;51.048;4.686;2022-10-23T04:52:05;101025.22;;;11.51;100.00
44140;BME280;29803;51.048;4.686;2022-10-23T04:54:36;101025.03;;;11.52;100.00
44140;BME280;29803;51.048;4.686;2022-10-23T04:57:07;101023.19;;;11.53;100.00
44140;BME280;29803;51.048;4.686;2022-10-23T04:59:37;101023.00;;;11.54;100.00
44140;BME280;29803;51.048;4.686;2022-10-23T05:02:08;101028.06;;;11.57;100.00
44140;BME280;29803;51.048;4.686;2022-10-23T05:04:38;101014.13;;;11.62;100.00
44140;BME280;29803;51.048;4.686;2022-10-23T05:07:09;101006.56;;;11.65;100.00
44140;BME280;29803;51.048;4.686;2022-10-23T05:09:39;100996.66;;;11.66;100.00
44140;BME280;29803;51.048;4.686;2022-10-23T05:12:10;100997.50;;;11.66;100.00
44140;BME280;29803;51.048;4.686;2022-10-23T05:14:40;101002.69;;;11.68;100.00
44140;BME280;29803;51.048;4.686;2022-10-23T05:17:17;101003.19;;;11.72;100.00
44140;BME280;29803;51.048;4.686;2022-10-23T05:19:53;101000.00;;;11.76;100.00
44140;BME280;29803;51.048;4.686;2022-10-23T05:22:26;100995.28;;;11.78;100.00
44140;BME280;29803;51.048;4.686;2022-10-23T05:24:59;100998.31;;;11.83;100.00
44140;BME280;29803;51.048;4.686;2022-10-23T05:27:31;100995.50;;;11.85;100.00
44140;BME280;29803;51.048;4.686;2022-10-23T05:30:03;100994.63;;;11.84;100.00
44140;BME280;29803;51.048;4.686;2022-10-23T05:32:34;100991.44;;;11.89;100.00
44140;BME280;29803;51.048;4.686;2022-10-23T05:35:08;100988.91;;;11.87;100.00
44140;BME280;29803;51.048;4.686;2022-10-23T05:37:42;100982.06;;;11.85;100.00
44140;BME280;29803;51.048;4.686;2022-10-23T05:40:13;100989.25;;;11.84;100.00
44140;BME280;29803;51.048;4.686;2022-10-23T05:42:43;100983.22;;;11.82;100.00
44140;BME280;29803;51.048;4.686;2022-10-23T05:45:14;100979.50;;;11.83;100.00
44140;BME280;29803;51.048;4.686;2022-10-23T05:47:45;100975.16;;;11.82;100.00
44140;BME280;29803;51.048;4.686;2022-10-23T05:50:15;100975.31;;;11.81;100.00
44140;BME280;29803;51.048;4.686;2022-10-23T05:52:47;100970.06;;;11.79;100.00
44140;BME280;29803;51.048;4.686;2022-10-23T05:55:17;100962.19;;;11.78;100.00
44140;BME280;29803;51.048;4.686;2022-10-23T05:57:48;100966.41;;;11.80;100.00
44140;BME280;29803;51.048;4.686;2022-10-23T06:00:18;100957.31;;;11.81;100.00
44140;BME280;29803;51.048;4.686;2022-10-23T06:02:49;100956.81;;;11.78;100.00
44140;BME280;29803;51.048;4.686;2022-10-23T06:05:19;100950.44;;;11.79;100.00
44140;BME280;29803;51.048;4.686;2022-10-23T06:07:50;100946.06;;;11.78;100.00
44140;BME280;29803;51.048;4.686;2022-10-23T06:10:20;100939.69;;;11.79;100.00
44140;BME280;29803;51.048;4.686;2022-10-23T06:12:50;100938.00;;;11.78;100.00
44140;BME280;29803;51.048;4.686;2022-10-23T06:15:21;100932.44;;;11.79;100.00
44140;BME280;29803;51.048;4.686;2022-10-23T06:17:51;100929.59;;;11.81;100.00
44140;BME280;29803;51.048;4.686;2022-10-23T06:20:22;100925.94;;;11.82;100.00
44140;BME280;29803;51.048;4.686;2022-10-23T06:22:52;100923.91;;;11.84;100.00
44140;BME280;29803;51.048;4.686;2022-10-23T06:25:22;100928.94;;;11.87;100.00
44140;BME280;29803;51.048;4.686;2022-10-23T06:27:53;100920.53;;;11.90;100.00
44140;BME280;29803;51.048;4.686;2022-10-23T06:30:23;100924.91;;;11.91;100.00
44140;BME280;29803;51.048;4.686;2022-10-23T06:32:54;100920.53;;;11.90;100.00
44140;BME280;29803;51.048;4.686;2022-10-23T06:35:24;100912.47;;;11.90;100.00
44140;BME280;29803;51.048;4.686;2022-10-23T06:37:55;100913.78;;;11.94;100.00
44140;BME280;29803;51.048;4.686;2022-10-23T06:40:25;100917.16;;;11.96;100.00
44140;BME280;29803;51.048;4.686;2022-10-23T06:42:56;100914.94;;;12.00;100.00
44140;BME280;29803;51.048;4.686;2022-10-23T06:45:26;100915.81;;;12.00;100.00
44140;BME280;29803;51.048;4.686;2022-10-23T06:47:59;100919.78;;;12.04;100.00
44140;BME280;29803;51.048;4.686;2022-10-23T06:50:30;100917.44;;;12.09;100.00
44140;BME280;29803;51.048;4.686;2022-10-23T06:53:00;100911.72;;;12.12;100.00
44140;BME280;29803;51.048;4.686;2022-10-23T06:55:31;100904.78;;;12.18;100.00
44140;BME280;29803;51.048;4.686;2022-10-23T06:58:02;100896.19;;;12.23;100.00
44140;BME280;29803;51.048;4.686;2022-10-23T07:00:33;100903.09;;;12.25;100.00
44140;BME280;29803;51.048;4.686;2022-10-23T07:03:04;100898.03;;;12.30;100.00
44140;BME280;29803;51.048;4.686;2022-10-23T07:05:35;100903.53;;;12.37;100.00
44140;BME280;29803;51.048;4.686;2022-10-23T07:08:05;100903.19;;;12.40;100.00
44140;BME280;29803;51.048;4.686;2022-10-23T07:10:36;100908.38;;;12.41;100.00
44140;BME280;29803;51.048;4.686;2022-10-23T07:13:07;100914.25;;;12.45;100.00
44140;BME280;29803;51.048;4.686;2022-10-23T07:15:38;100908.31;;;12.50;100.00
44140;BME280;29803;51.048;4.686;2022-10-23T07:18:09;100913.84;;;12.56;100.00
44140;BME280;29803;51.048;4.686;2022-10-23T07:20:44;100914.59;;;12.65;100.00
44140;BME280;29803;51.048;4.686;2022-10-23T07:23:18;100913.72;;;12.73;100.00
44140;BME280;29803;51.048;4.686;2022-10-23T07:25:48;100914.88;;;12.78;100.00
44140;BME280;29803;51.048;4.686;2022-10-23T07:28:19;100909.59;;;12.85;100.00
44140;BME280;29803;51.048;4.686;2022-10-23T07:30:57;100906.22;;;12.91;100.00
44140;BME280;29803;51.048;4.686;2022-10-23T07:33:27;100906.31;;;12.98;100.00
44140;BME280;29803;51.048;4.686;2022-10-23T07:35:58;100904.41;;;13.06;100.00
44140;BME280;29803;51.048;4.686;2022-10-23T07:38:29;100900.97;;;13.12;100.00
44140;BME280;29803;51.048;4.686;2022-10-23T07:41:00;100899.22;;;13.19;100.00
44140;BME280;29803;51.048;4.686;2022-10-23T07:43:30;100901.25;;;13.26;100.00
44140;BME280;29803;51.048;4.686;2022-10-23T07:46:01;100901.34;;;13.32;100.00
44140;BME280;29803;51.048;4.686;2022-10-23T07:48:32;100896.88;;;13.39;100.00
44140;BME280;29803;51.048;4.686;2022-10-23T07:51:06;100898.84;;;13.45;100.00
44140;BME280;29803;51.048;4.686;2022-10-23T07:53:38;100903.50;;;13.52;100.00
44140;BME280;29803;51.048;4.686;2022-10-23T07:56:17;100896.91;;;13.54;100.00
44140;BME280;29803;51.048;4.686;2022-10-23T07:58:50;100896.16;;;13.60;100.00
44140;BME280;29803;51.048;4.686;2022-10-23T08:01:38;100890.03;;;13.66;100.00
44140;BME280;29803;51.048;4.686;2022-10-23T08:04:09;100891.34;;;13.70;100.00
44140;BME280;29803;51.048;4.686;2022-10-23T08:06:40;100886.25;;;13.76;100.00
44140;BME280;29803;51.048;4.686;2022-10-23T08:09:10;100873.41;;;13.78;100.00
44140;BME280;29803;51.048;4.686;2022-10-23T08:11:41;100865.38;;;13.84;100.00
44140;BME280;29803;51.048;4.686;2022-10-23T08:14:11;100849.47;;;13.89;100.00
44140;BME280;29803;51.048;4.686;2022-10-23T08:16:42;100859.72;;;13.94;100.00
44140;BME280;29803;51.048;4.686;2022-10-23T08:19:12;100852.91;;;13.98;100.00
44140;BME280;29803;51.048;4.686;2022-10-23T08:21:43;100848.81;;;14.02;100.00
44140;BME280;29803;51.048;4.686;2022-10-23T08:24:13;100847.78;;;14.03;100.00
44140;BME280;29803;51.048;4.686;2022-10-23T08:26:44;100852.81;;;14.06;100.00
44140;BME280;29803;51.048;4.686;2022-10-23T08:29:14;100852.06;;;14.12;100.00
44140;BME280;29803;51.048;4.686;2022-10-23T08:31:45;100843.84;;;14.20;100.00
44140;BME280;29803;51.048;4.686;2022-10-23T08:34:16;100851.81;;;14.29;100.00
44140;BME280;29803;51.048;4.686;2022-10-23T08:36:48;100844.00;;;14.34;100.00
44140;BME280;29803;51.048;4.686;2022-10-23T08:39:18;100838.22;;;14.37;100.00
44140;BME280;29803;51.048;4.686;2022-10-23T08:41:50;100835.78;;;14.42;100.00
44140;BME280;29803;51.048;4.686;2022-10-23T08:44:29;100824.59;;;14.45;100.00
44140;BME280;29803;51.048;4.686;2022-10-23T08:49:39;100808.94;;;14.55;100.00
44140;BME280;29803;51.048;4.686;2022-10-23T08:52:18;100808.00;;;14.63;100.00
44140;BME280;29803;51.048;4.686;2022-10-23T08:55:04;100806.84;;;14.72;100.00
44140;BME280;29803;51.048;4.686;2022-10-23T08:57:42;100817.06;;;14.76;100.00
44140;BME280;29803;51.048;4.686;2022-10-23T09:00:16;100812.16;;;14.87;100.00
44140;BME280;29803;51.048;4.686;2022-10-23T09:02:49;100801.78;;;14.90;100.00
44140;BME280;29803;51.048;4.686;2022-10-23T09:08:23;100784.81;;;14.96;100.00
44140;BME280;29803;51.048;4.686;2022-10-23T09:11:03;100780.03;;;14.98;100.00
44140;BME280;29803;51.048;4.686;2022-10-23T09:19:18;100764.69;;;15.06;100.00
44140;BME280;29803;51.048;4.686;2022-10-23T09:21:49;100759.16;;;15.14;100.00
44140;BME280;29803;51.048;4.686;2022-10-23T09:24:21;100737.75;;;15.19;100.00
44140;BME280;29803;51.048;4.686;2022-10-23T09:26:53;100726.16;;;15.25;100.00
44140;BME280;29803;51.048;4.686;2022-10-23T09:29:31;100721.41;;;15.27;100.00
44140;BME280;29803;51.048;4.686;2022-10-23T09:32:04;100749.44;;;15.26;100.00
44140;BME280;29803;51.048;4.686;2022-10-23T09:34:35;100741.78;;;15.29;100.00
44140;BME280;29803;51.048;4.686;2022-10-23T09:37:29;100731.78;;;15.30;100.00
44140;BME280;29803;51.048;4.686;2022-10-23T09:43:22;100724.56;;;15.37;100.00
44140;BME280;29803;51.048;4.686;2022-10-23T09:46:01;100720.22;;;15.43;100.00
44140;BME280;29803;51.048;4.686;2022-10-23T09:48:33;100729.84;;;15.52;100.00
44140;BME280;29803;51.048;4.686;2022-10-23T09:51:24;100733.66;;;15.64;100.00
44140;BME280;29803;51.048;4.686;2022-10-23T09:53:57;100734.53;;;15.71;100.00
44140;BME280;29803;51.048;4.686;2022-10-23T09:56:32;100733.50;;;15.79;100.00
44140;BME280;29803;51.048;4.686;2022-10-23T09:59:15;100723.13;;;15.89;100.00
44140;BME280;29803;51.048;4.686;2022-10-23T10:01:54;100717.75;;;16.02;100.00
44140;BME280;29803;51.048;4.686;2022-10-23T10:04:40;100724.00;;;16.16;100.00
44140;BME280;29803;51.048;4.686;2022-10-23T10:07:23;100723.41;;;16.27;100.00
44140;BME280;29803;51.048;4.686;2022-10-23T10:09:55;100718.44;;;16.38;100.00
44140;BME280;29803;51.048;4.686;2022-10-23T10:12:55;100713.44;;;16.48;100.00
44140;BME280;29803;51.048;4.686;2022-10-23T10:15:32;100719.03;;;16.60;100.00
44140;BME280;29803;51.048;4.686;2022-10-23T10:23:53;100702.38;;;17.02;100.00
44140;BME280;29803;51.048;4.686;2022-10-23T10:32:36;100716.47;;;17.24;100.00
44140;BME280;29803;51.048;4.686;2022-10-23T10:46:35;100700.53;;;17.48;100.00
44140;BME280;29803;51.048;4.686;2022-10-23T10:49:28;100682.56;;;17.53;100.00
44140;BME280;29803;51.048;4.686;2022-10-23T10:52:22;100687.34;;;17.58;100.00
44140;BME280;29803;51.048;4.686;2022-10-23T10:57:47;100669.34;;;17.70;100.00
44140;BME280;29803;51.048;4.686;2022-10-23T11:00:21;100664.72;;;17.71;100.00
44140;BME280;29803;51.048;4.686;2022-10-23T11:02:58;100662.03;;;17.71;100.00
44140;BME280;29803;51.048;4.686;2022-10-23T11:05:42;100654.28;;;17.81;100.00
44140;BME280;29803;51.048;4.686;2022-10-23T11:08:17;100644.06;;;17.83;100.00
44140;BME280;29803;51.048;4.686;2022-10-23T11:10:54;100641.88;;;17.92;100.00
44140;BME280;29803;51.048;4.686;2022-10-23T11:13:32;100647.47;;;17.97;100.00
44140;BME280;29803;51.048;4.686;2022-10-23T11:16:12;100643.28;;;18.01;100.00
44140;BME280;29803;51.048;4.686;2022-10-23T11:18:47;100646.78;;;18.08;100.00
44140;BME280;29803;51.048;4.686;2022-10-23T11:24:26;100630.28;;;18.09;100.00
44140;BME280;29803;51.048;4.686;2022-10-23T11:32:43;100613.59;;;18.06;100.00
44140;BME280;29803;51.048;4.686;2022-10-23T11:35:20;100616.47;;;18.11;100.00
44140;BME280;29803;51.048;4.686;2022-10-23T11:38:06;100611.84;;;18.18;100.00
44140;BME280;29803;51.048;4.686;2022-10-23T11:41:29;100610.94;;;18.24;100.00
44140;BME280;29803;51.048;4.686;2022-10-23T11:44:43;100605.00;;;18.34;100.00
44140;BME280;29803;51.048;4.686;2022-10-23T11:47:34;100596.63;;;18.35;100.00
44140;BME280;29803;51.048;4.686;2022-10-23T11:52:51;100585.66;;;18.49;100.00
44140;BME280;29803;51.048;4.686;2022-10-23T11:55:27;100596.19;;;18.57;100.00
44140;BME280;29803;51.048;4.686;2022-10-23T11:58:46;100593.19;;;18.65;100.00
44140;BME280;29803;51.048;4.686;2022-10-23T12:04:01;100589.09;;;18.81;100.00
44140;BME280;29803;51.048;4.686;2022-10-23T12:06:40;100580.63;;;18.89;100.00
44140;BME280;29803;51.048;4.686;2022-10-23T12:09:43;100581.22;;;18.91;100.00
44140;BME280;29803;51.048;4.686;2022-10-23T12:12:24;100573.00;;;18.98;100.00
44140;BME280;29803;51.048;4.686;2022-10-23T12:15:29;100563.47;;;19.07;100.00
44140;BME280;29803;51.048;4.686;2022-10-23T12:18:16;100565.50;;;19.11;100.00
44140;BME280;29803;51.048;4.686;2022-10-23T12:20:56;100564.09;;;19.09;100.00
44140;BME280;29803;51.048;4.686;2022-10-23T12:28:57;100549.31;;;19.17;100.00
44140;BME280;29803;51.048;4.686;2022-10-23T12:36:59;100528.41;;;19.17;100.00
44140;BME280;29803;51.048;4.686;2022-10-23T12:39:34;100529.59;;;19.21;100.00
44140;BME280;29803;51.048;4.686;2022-10-23T12:42:34;100522.41;;;19.27;100.00
44140;BME280;29803;51.048;4.686;2022-10-23T12:47:42;100510.00;;;19.31;100.00
44140;BME280;29803;51.048;4.686;2022-10-23T12:50:23;100502.91;;;19.30;100.00
44140;BME280;29803;51.048;4.686;2022-10-23T12:53:03;100493.38;;;19.39;100.00
44140;BME280;29803;51.048;4.686;2022-10-23T12:55:55;100495.28;;;19.50;100.00
44140;BME280;29803;51.048;4.686;2022-10-23T12:58:31;100483.25;;;19.58;100.00
44140;BME280;29803;51.048;4.686;2022-10-23T13:01:04;100480.44;;;19.64;100.00
44140;BME280;29803;51.048;4.686;2022-10-23T13:03:37;100479.94;;;19.67;100.00
44140;BME280;29803;51.048;4.686;2022-10-23T13:06:09;100477.13;;;19.74;100.00
44140;BME280;29803;51.048;4.686;2022-10-23T13:08:44;100473.34;;;19.75;100.00
44140;BME280;29803;51.048;4.686;2022-10-23T13:11:18;100478.31;;;19.78;100.00
44140;BME280;29803;51.048;4.686;2022-10-23T13:13:49;100486.00;;;19.81;100.00
44140;BME280;29803;51.048;4.686;2022-10-23T13:16:23;100481.75;;;19.85;100.00
44140;BME280;29803;51.048;4.686;2022-10-23T13:18:54;100488.75;;;19.93;100.00
44140;BME280;29803;51.048;4.686;2022-10-23T13:21:27;100490.16;;;19.96;100.00
44140;BME280;29803;51.048;4.686;2022-10-23T13:23:58;100488.38;;;20.01;100.00
44140;BME280;29803;51.048;4.686;2022-10-23T13:29:18;100488.25;;;20.08;100.00
44140;BME280;29803;51.048;4.686;2022-10-23T13:31:50;100481.16;;;20.07;100.00
44140;BME280;29803;51.048;4.686;2022-10-23T13:34:28;100477.72;;;20.00;100.00
44140;BME280;29803;51.048;4.686;2022-10-23T13:37:00;100473.44;;;19.92;100.00
44140;BME280;29803;51.048;4.686;2022-10-23T13:39:32;100465.41;;;19.85;100.00
44140;BME280;29803;51.048;4.686;2022-10-23T13:42:12;100461.13;;;19.78;100.00
44140;BME280;29803;51.048;4.686;2022-10-23T13:44:43;100457.72;;;19.71;100.00
44140;BME280;29803;51.048;4.686;2022-10-23T13:47:14;100463.16;;;19.71;100.00
44140;BME280;29803;51.048;4.686;2022-10-23T13:49:46;100456.53;;;19.66;100.00
44140;BME280;29803;51.048;4.686;2022-10-23T13:52:19;100453.31;;;19.58;100.00
44140;BME280;29803;51.048;4.686;2022-10-23T13:54:51;100458.28;;;19.61;100.00
44140;BME280;29803;51.048;4.686;2022-10-23T13:57:21;100449.72;;;19.57;100.00
44140;BME280;29803;51.048;4.686;2022-10-23T13:59:52;100453.53;;;19.56;100.00
44140;BME280;29803;51.048;4.686;2022-10-23T14:02:22;100453.16;;;19.53;100.00
44140;BME280;29803;51.048;4.686;2022-10-23T14:04:53;100461.31;;;19.53;100.00
44140;BME280;29803;51.048;4.686;2022-10-23T14:07:24;100459.44;;;19.53;100.00
44140;BME280;29803;51.048;4.686;2022-10-23T14:09:54;100459.78;;;19.57;100.00
44140;BME280;29803;51.048;4.686;2022-10-23T14:12:25;100455.19;;;19.57;100.00
44140;BME280;29803;51.048;4.686;2022-10-23T14:14:55;100449.53;;;19.59;100.00
44140;BME280;29803;51.048;4.686;2022-10-23T14:17:26;100449.16;;;19.55;100.00
44140;BME280;29803;51.048;4.686;2022-10-23T14:19:56;100445.16;;;19.58;100.00
44140;BME280;29803;51.048;4.686;2022-10-23T14:22:27;100442.28;;;19.53;100.00
44140;BME280;29803;51.048;4.686;2022-10-23T14:24:57;100441.22;;;19.54;100.00
44140;BME280;29803;51.048;4.686;2022-10-23T14:27:28;100440.16;;;19.55;100.00
44140;BME280;29803;51.048;4.686;2022-10-23T14:29:59;100435.78;;;19.54;100.00
44140;BME280;29803;51.048;4.686;2022-10-23T14:32:29;100431.53;;;19.58;100.00
44140;BME280;29803;51.048;4.686;2022-10-23T14:35:00;100430.81;;;19.51;100.00
44140;BME280;29803;51.048;4.686;2022-10-23T14:37:33;100425.81;;;19.48;100.00
44140;BME280;29803;51.048;4.686;2022-10-23T14:40:04;100421.94;;;19.44;100.00
44140;BME280;29803;51.048;4.686;2022-10-23T14:42:35;100423.72;;;19.38;100.00
44140;BME280;29803;51.048;4.686;2022-10-23T14:45:06;100421.69;;;19.33;100.00
44140;BME280;29803;51.048;4.686;2022-10-23T14:47:36;100417.78;;;19.29;100.00
44140;BME280;29803;51.048;4.686;2022-10-23T14:50:09;100414.94;;;19.24;100.00